createdAt,value
2019-02-24T00:01:57.341Z,75.97
2019-02-24T00:04:28.201Z,67.07
2019-02-24T00:06:58.715Z,78.17
2019-02-24T00:09:29.225Z,88.07
2019-02-24T00:11:59.586Z,71.90
2019-02-24T00:14:30.224Z,81.67
2019-02-24T00:17:00.757Z,81.20
2019-02-24T00:19:31.361Z,80.67
2019-02-24T00:22:01.952Z,82.90
2019-02-24T00:24:32.590Z,88.10
2019-02-24T00:27:03.061Z,88.70
2019-02-24T00:29:33.640Z,82.60
2019-02-24T00:32:04.107Z,86.87
2019-02-24T00:34:34.755Z,74.30
2019-02-24T00:37:05.346Z,78.77
2019-02-24T00:39:36.004Z,74.90
2019-02-24T00:42:06.597Z,68.70
2019-02-24T00:44:37.443Z,64.97
2019-02-24T00:47:08.158Z,68.07
2019-02-24T00:49:38.643Z,71.70
2019-02-24T00:52:09.166Z,77.87
2019-02-24T00:54:39.608Z,70.87
2019-02-24T00:57:10.085Z,71.13
2019-02-24T00:59:40.582Z,76.03
2019-02-24T01:02:11.072Z,70.83
2019-02-24T01:04:41.568Z,74.43
2019-02-24T01:07:11.986Z,74.03
2019-02-24T01:09:42.535Z,82.47
2019-02-24T01:12:13.021Z,79.17
2019-02-24T01:14:43.551Z,70.10
2019-02-24T01:17:14.031Z,70.93
2019-02-24T01:19:44.472Z,74.43
2019-02-24T01:22:14.946Z,77.83
2019-02-24T01:24:45.592Z,81.80
2019-02-24T01:27:16.048Z,76.37
2019-02-24T01:29:46.529Z,81.07
2019-02-24T01:32:17.086Z,78.37
2019-02-24T01:34:47.557Z,76.10
2019-02-24T01:37:18.026Z,74.40
2019-02-24T01:39:48.611Z,79.07
2019-02-24T01:42:19.037Z,82.80
2019-02-24T01:44:49.656Z,82.23
2019-02-24T01:47:20.246Z,73.80
2019-02-24T01:49:50.831Z,81.43
2019-02-24T01:52:21.517Z,87.93
2019-02-24T01:54:52.146Z,86.70
2019-02-24T01:57:22.587Z,79.20
2019-02-24T01:59:53.306Z,81.77
2019-02-24T02:02:23.907Z,101.87
2019-02-24T02:04:54.464Z,91.00
2019-02-24T02:07:25.002Z,91.03
2019-02-24T02:09:55.536Z,97.50
2019-02-24T02:12:25.996Z,113.03
2019-02-24T02:14:56.615Z,108.90
2019-02-24T02:17:27.100Z,95.50
2019-02-24T02:19:57.547Z,92.10
2019-02-24T02:22:28.379Z,90.03
2019-02-24T02:24:58.861Z,74.23
2019-02-24T02:27:29.377Z,81.03
2019-02-24T02:29:59.871Z,76.87
2019-02-24T02:32:30.449Z,83.57
2019-02-24T02:35:00.811Z,76.23
2019-02-24T02:37:31.381Z,67.03
2019-02-24T02:40:01.783Z,74.80
2019-02-24T02:42:32.321Z,66.77
2019-02-24T02:45:02.782Z,73.97
2019-02-24T02:47:33.111Z,69.43
2019-02-24T02:50:03.633Z,76.20
2019-02-24T02:52:33.975Z,74.43
2019-02-24T02:55:04.982Z,69.70
2019-02-24T02:57:35.485Z,66.83
2019-02-24T03:00:13.211Z,65.27
2019-02-24T03:02:43.837Z,76.23
2019-02-24T03:05:14.475Z,71.87
2019-02-24T03:07:48.461Z,73.13
2019-02-24T03:10:18.852Z,67.27
2019-02-24T03:12:50.912Z,63.57
2019-02-24T03:15:21.435Z,69.87
2019-02-24T03:17:52.182Z,69.43
2019-02-24T03:20:22.675Z,72.40
2019-02-24T03:22:53.341Z,65.97
2019-02-24T03:25:23.840Z,75.50
2019-02-24T03:27:54.309Z,64.83
2019-02-24T03:30:24.744Z,65.77
2019-02-24T03:32:55.242Z,74.73
2019-02-24T03:35:25.618Z,67.33
2019-02-24T03:37:56.033Z,75.43
2019-02-24T03:40:26.617Z,70.23
2019-02-24T03:42:57.147Z,70.17
2019-02-24T03:45:27.626Z,64.43
2019-02-24T03:47:58.175Z,78.20
2019-02-24T03:50:28.632Z,71.30
2019-02-24T03:52:59.611Z,74.60
2019-02-24T03:55:30.634Z,72.07
2019-02-24T03:58:01.141Z,78.57
2019-02-24T04:00:32.062Z,69.50
2019-02-24T04:03:02.691Z,71.40
2019-02-24T04:05:33.184Z,75.33
2019-02-24T04:08:04.001Z,79.27
2019-02-24T04:10:34.487Z,76.50
2019-02-24T04:13:05.055Z,74.67
2019-02-24T04:15:35.604Z,81.80
2019-02-24T04:18:06.128Z,96.87
2019-02-24T04:20:36.678Z,88.97
2019-02-24T04:23:07.167Z,77.33
2019-02-24T04:25:37.556Z,84.13
2019-02-24T04:28:08.477Z,88.53
2019-02-24T04:30:38.992Z,87.40
2019-02-24T04:33:09.478Z,93.53
2019-02-24T04:35:39.977Z,87.13
2019-02-24T04:38:10.517Z,84.47
2019-02-24T04:40:40.931Z,87.07
2019-02-24T04:43:11.411Z,78.97
2019-02-24T04:45:41.921Z,89.03
2019-02-24T04:48:12.457Z,96.33
2019-02-24T04:50:43.011Z,94.90
2019-02-24T04:53:13.426Z,100.13
2019-02-24T04:55:43.915Z,105.30
2019-02-24T04:58:14.452Z,106.77
2019-02-24T05:00:44.946Z,103.77
2019-02-24T05:03:15.459Z,79.33
2019-02-24T05:05:45.942Z,86.03
2019-02-24T05:08:16.407Z,76.70
2019-02-24T05:10:47.157Z,95.40
2019-02-24T05:13:17.581Z,92.80
2019-02-24T05:15:47.930Z,82.17
2019-02-24T05:18:18.661Z,77.87
2019-02-24T05:20:49.165Z,81.23
2019-02-24T05:23:19.618Z,78.63
2019-02-24T05:25:50.076Z,80.10
2019-02-24T05:28:20.713Z,93.57
2019-02-24T05:30:51.082Z,102.93
2019-02-24T05:33:21.677Z,107.77
2019-02-24T05:35:52.246Z,107.70
2019-02-24T05:38:22.796Z,94.30
2019-02-24T05:40:53.258Z,96.63
2019-02-24T05:43:23.914Z,97.23
2019-02-24T05:45:54.531Z,92.53
2019-02-24T05:48:25.011Z,98.47
2019-02-24T05:50:55.471Z,98.97
2019-02-24T05:53:25.841Z,86.80
2019-02-24T05:55:56.376Z,104.13
2019-02-24T05:58:26.925Z,90.57
2019-02-24T06:00:57.589Z,88.70
2019-02-24T06:03:28.018Z,86.27
2019-02-24T06:05:58.481Z,78.07
2019-02-24T06:08:29.143Z,81.67
2019-02-24T06:10:59.525Z,75.13
2019-02-24T06:13:30.229Z,80.37
2019-02-24T06:16:00.794Z,102.23
2019-02-24T06:18:31.281Z,112.53
2019-02-24T06:21:01.886Z,130.10
2019-02-24T06:23:32.499Z,109.90
2019-02-24T06:26:03.369Z,88.23
2019-02-24T06:28:33.941Z,84.70
2019-02-24T06:31:05.506Z,84.97
2019-02-24T06:33:35.938Z,93.03
2019-02-24T06:36:06.820Z,104.27
2019-02-24T06:38:37.582Z,98.83
2019-02-24T06:41:08.518Z,96.00
2019-02-24T06:43:39.122Z,82.97
2019-02-24T06:46:09.818Z,97.97
2019-02-24T06:48:40.552Z,83.73
2019-02-24T06:51:12.307Z,92.77
2019-02-24T06:53:42.977Z,97.03
2019-02-24T06:56:13.879Z,85.73
2019-02-24T06:58:45.329Z,94.97
2019-02-24T07:01:16.327Z,84.57
2019-02-24T07:03:46.943Z,89.90
2019-02-24T07:06:17.457Z,84.03
2019-02-24T07:08:48.033Z,94.03
2019-02-24T07:11:18.539Z,85.60
2019-02-24T07:13:49.017Z,84.97
2019-02-24T07:16:19.519Z,80.77
2019-02-24T07:18:50.117Z,89.67
2019-02-24T07:21:20.550Z,95.57
2019-02-24T07:23:52.499Z,90.93
2019-02-24T07:26:23.199Z,86.93
2019-02-24T07:28:53.785Z,95.77
2019-02-24T07:31:24.481Z,96.53
2019-02-24T07:33:55.299Z,98.47
2019-02-24T07:36:26.039Z,89.93
2019-02-24T07:38:56.756Z,88.73
2019-02-24T07:41:27.596Z,91.17
2019-02-24T07:43:58.355Z,89.37
2019-02-24T07:46:29.157Z,79.20
2019-02-24T07:49:00.147Z,89.63
2019-02-24T07:51:30.794Z,92.83
2019-02-24T07:54:01.277Z,92.27
2019-02-24T07:56:32.069Z,78.30
2019-02-24T07:59:02.675Z,80.20
2019-02-24T08:01:33.364Z,81.20
2019-02-24T08:04:04.112Z,85.27
2019-02-24T08:06:37.077Z,90.57
2019-02-24T08:09:09.479Z,84.93
2019-02-24T08:11:39.988Z,89.83
2019-02-24T08:14:11.025Z,89.37
2019-02-24T08:16:46.200Z,90.93
2019-02-24T08:19:18.487Z,93.73
2019-02-24T08:21:49.244Z,85.90
2019-02-24T08:24:19.771Z,82.23
2019-02-24T08:26:51.414Z,81.40
2019-02-24T08:29:23.356Z,79.70
2019-02-24T08:31:54.199Z,73.60
2019-02-24T08:34:25.675Z,83.63
2019-02-24T08:36:57.176Z,74.20
2019-02-24T08:39:28.783Z,63.13
2019-02-24T08:42:00.003Z,66.17
2019-02-24T08:44:30.598Z,62.87
2019-02-24T08:47:01.485Z,64.03
2019-02-24T08:49:31.979Z,59.63
2019-02-24T08:52:02.851Z,57.73
2019-02-24T08:54:37.688Z,49.53
2019-02-24T08:57:08.236Z,48.93
2019-02-24T08:59:38.839Z,46.53
2019-02-24T09:02:09.192Z,49.03
2019-02-24T09:04:40.078Z,48.97
2019-02-24T09:07:10.544Z,50.67
2019-02-24T09:09:41.137Z,57.40
2019-02-24T09:12:11.667Z,50.27
2019-02-24T09:14:42.302Z,49.93
2019-02-24T09:17:12.876Z,54.27
2019-02-24T09:19:43.432Z,56.37
2019-02-24T09:22:14.045Z,53.60
2019-02-24T09:24:44.545Z,54.17
2019-02-24T09:27:15.072Z,51.40
2019-02-24T09:29:45.598Z,57.77
2019-02-24T09:32:16.215Z,62.23
2019-02-24T09:34:46.811Z,60.57
2019-02-24T09:37:17.406Z,55.63
2019-02-24T09:39:47.966Z,61.27
2019-02-24T09:42:18.541Z,58.00
2019-02-24T09:44:49.102Z,57.03
2019-02-24T09:47:19.674Z,56.73
2019-02-24T09:49:50.169Z,54.90
2019-02-24T09:52:20.681Z,53.60
2019-02-24T09:54:51.552Z,59.63
2019-02-24T09:57:22.072Z,58.97
2019-02-24T09:59:52.599Z,56.70
2019-02-24T10:02:23.148Z,56.17
2019-02-24T10:04:53.657Z,56.40
2019-02-24T10:07:24.278Z,52.60
2019-02-24T10:09:54.745Z,58.93
2019-02-24T10:12:25.351Z,56.93
2019-02-24T10:14:56.486Z,53.07
2019-02-24T10:17:27.046Z,53.83
2019-02-24T10:19:57.439Z,55.47
2019-02-24T10:22:28.086Z,59.80
2019-02-24T10:24:58.527Z,52.03
2019-02-24T10:27:29.054Z,53.13
2019-02-24T10:29:59.947Z,52.10
2019-02-24T10:32:30.378Z,54.33
2019-02-24T10:35:00.866Z,52.27
2019-02-24T10:37:31.436Z,52.03
2019-02-24T10:40:01.966Z,49.60
2019-02-24T10:42:32.607Z,50.50
2019-02-24T10:45:03.198Z,50.07
2019-02-24T10:47:33.661Z,49.63
2019-02-24T10:50:04.611Z,48.63
2019-02-24T10:52:35.075Z,45.87
2019-02-24T10:55:06.050Z,48.83
2019-02-24T10:57:36.955Z,43.00
2019-02-24T11:00:10.240Z,43.70
2019-02-24T11:02:40.850Z,41.23
2019-02-24T11:05:11.678Z,47.23
2019-02-24T11:07:42.447Z,39.03
2019-02-24T11:10:13.525Z,38.43
2019-02-24T11:12:44.131Z,43.70
2019-02-24T11:15:14.796Z,37.17
2019-02-24T11:17:45.348Z,39.63
2019-02-24T11:20:16.192Z,39.57
2019-02-24T11:22:46.715Z,41.43
2019-02-24T11:25:17.366Z,39.50
2019-02-24T11:27:47.933Z,40.47
2019-02-24T11:30:18.544Z,41.57
2019-02-24T11:32:49.144Z,38.30
2019-02-24T11:35:19.876Z,40.93
2019-02-24T11:37:51.182Z,42.03
2019-02-24T11:40:21.856Z,41.60
2019-02-24T11:42:52.518Z,41.50
2019-02-24T11:45:23.051Z,42.40
2019-02-24T11:47:53.681Z,41.40
2019-02-24T11:50:24.201Z,39.00
2019-02-24T11:52:55.051Z,37.60
2019-02-24T11:55:25.523Z,38.63
2019-02-24T11:57:56.049Z,38.90
2019-02-24T12:00:26.730Z,33.43
2019-02-24T12:02:57.267Z,33.93
2019-02-24T12:05:27.870Z,30.90
2019-02-24T12:07:58.444Z,29.87
2019-02-24T12:10:28.851Z,25.00
2019-02-24T12:12:59.585Z,29.43
2019-02-24T12:15:30.121Z,25.57
2019-02-24T12:18:00.713Z,25.17
2019-02-24T12:20:31.322Z,22.57
2019-02-24T12:23:01.897Z,20.80
2019-02-24T12:25:32.437Z,23.53
2019-02-24T12:28:03.047Z,33.57
2019-02-24T12:30:33.658Z,34.57
2019-02-24T12:33:04.205Z,36.77
2019-02-24T12:35:35.544Z,32.83
2019-02-24T12:38:06.337Z,20.93
2019-02-24T12:40:37.117Z,25.20
2019-02-24T12:43:07.570Z,20.10
2019-02-24T12:45:38.148Z,31.13
2019-02-24T12:48:10.424Z,26.20
2019-02-24T12:50:40.994Z,27.07
2019-02-24T12:53:11.533Z,16.90
2019-02-24T12:55:42.126Z,20.87
2019-02-24T12:58:12.742Z,21.27
2019-02-24T13:00:43.280Z,35.77
2019-02-24T13:03:13.841Z,16.97
2019-02-24T13:05:44.401Z,17.70
2019-02-24T13:08:15.111Z,16.57
2019-02-24T13:10:45.848Z,25.17
2019-02-24T13:13:16.427Z,17.73
2019-02-24T13:15:46.949Z,19.97
2019-02-24T13:18:17.986Z,27.50
2019-02-24T13:20:48.571Z,28.03
2019-02-24T13:23:19.202Z,44.07
2019-02-24T13:25:49.709Z,37.13
2019-02-24T13:28:20.177Z,31.67
2019-02-24T13:30:50.737Z,25.63
2019-02-24T13:33:21.280Z,30.43
2019-02-24T13:35:51.828Z,28.37
2019-02-24T13:38:22.512Z,24.10
2019-02-24T13:40:53.051Z,18.67
2019-02-24T13:43:23.582Z,24.50
2019-02-24T13:45:54.197Z,20.73
2019-02-24T13:48:24.776Z,24.13
2019-02-24T13:50:55.231Z,21.57
2019-02-24T13:53:25.765Z,16.23
2019-02-24T13:55:58.334Z,23.47
2019-02-24T13:58:31.974Z,18.50
2019-02-24T14:01:03.387Z,15.63
2019-02-24T14:03:33.961Z,17.80
2019-02-24T14:06:04.487Z,24.33
2019-02-24T14:08:35.032Z,24.30
2019-02-24T14:11:06.662Z,24.47
2019-02-24T14:13:37.362Z,29.67
2019-02-24T14:16:07.919Z,20.10
2019-02-24T14:18:41.763Z,21.77
2019-02-24T14:21:12.357Z,22.90
2019-02-24T14:23:43.064Z,17.93
2019-02-24T14:26:13.652Z,16.23
2019-02-24T14:28:44.194Z,16.13
2019-02-24T14:31:14.753Z,14.53
2019-02-24T14:33:45.372Z,12.47
2019-02-24T14:36:16.001Z,14.43
2019-02-24T14:38:46.710Z,19.47
2019-02-24T14:41:17.325Z,23.73
2019-02-24T14:43:47.892Z,31.87
2019-02-24T14:46:18.531Z,24.57
2019-02-24T14:48:49.185Z,42.57
2019-02-24T14:51:19.891Z,30.97
2019-02-24T14:53:50.808Z,20.07
2019-02-24T14:56:23.267Z,17.70
2019-02-24T14:58:55.077Z,15.93
2019-02-24T15:01:26.072Z,19.73
2019-02-24T15:03:56.700Z,30.03
2019-02-24T15:06:27.258Z,51.73
2019-02-24T15:09:07.337Z,42.00
2019-02-24T15:11:40.591Z,41.73
2019-02-24T15:14:11.251Z,43.10
2019-02-24T15:16:42.042Z,67.97
2019-02-24T15:19:13.715Z,64.30
2019-02-24T15:21:47.951Z,120.17
2019-02-24T15:24:24.723Z,123.60
2019-02-24T15:26:55.701Z,87.43
2019-02-24T15:29:27.760Z,58.80
2019-02-24T15:31:58.478Z,47.87
2019-02-24T15:34:32.712Z,68.20
2019-02-24T15:37:03.422Z,59.17
2019-02-24T15:39:33.988Z,65.27
2019-02-24T15:42:06.011Z,79.17
2019-02-24T15:44:37.753Z,96.83
2019-02-24T15:47:08.384Z,109.87
2019-02-24T15:49:40.361Z,99.17
2019-02-24T15:52:10.947Z,102.20
2019-02-24T15:54:41.702Z,83.80
2019-02-24T15:57:13.641Z,85.73
2019-02-24T15:59:44.257Z,90.07
2019-02-24T16:02:16.086Z,53.97
2019-02-24T16:04:46.641Z,51.57
2019-02-24T16:07:17.187Z,29.33
2019-02-24T16:09:47.830Z,29.13
2019-02-24T16:12:18.458Z,32.37
2019-02-24T16:14:49.015Z,39.90
2019-02-24T16:17:19.567Z,19.47
2019-02-24T16:19:50.086Z,217.57
2019-02-24T16:22:20.604Z,192.17
2019-02-24T16:24:51.095Z,135.97
2019-02-24T16:27:26.592Z,78.67
2019-02-24T16:29:57.301Z,59.47
2019-02-24T16:32:28.366Z,38.10
2019-02-24T16:35:02.481Z,29.17
2019-02-24T16:37:33.041Z,26.47
2019-02-24T16:40:13.078Z,38.00
2019-02-24T16:42:43.598Z,52.40
2019-02-24T16:45:18.286Z,46.87
2019-02-24T16:47:48.932Z,124.07
2019-02-24T16:50:19.711Z,189.47
2019-02-24T16:52:50.382Z,86.10
2019-02-24T16:55:21.007Z,32.93
2019-02-24T16:57:51.598Z,24.20
2019-02-24T17:00:22.204Z,50.57
2019-02-24T17:02:52.943Z,70.07
2019-02-24T17:05:24.219Z,68.57
2019-02-24T17:07:54.912Z,78.03
2019-02-24T17:10:25.596Z,70.00
2019-02-24T17:13:01.699Z,101.07
2019-02-24T17:15:34.460Z,42.70
2019-02-24T17:18:09.290Z,39.80
2019-02-24T17:20:41.056Z,49.03
2019-02-24T17:23:13.771Z,44.07
2019-02-24T17:25:46.031Z,40.20
2019-02-24T17:28:21.482Z,33.63
2019-02-24T17:30:57.417Z,33.83
2019-02-24T17:33:30.226Z,28.77
2019-02-24T17:36:02.062Z,30.87
2019-02-24T17:38:38.050Z,35.40
2019-02-24T17:41:09.808Z,35.47
2019-02-24T17:43:44.650Z,39.63
2019-02-24T17:46:18.771Z,41.33
2019-02-24T17:48:54.006Z,34.00
2019-02-24T17:51:28.384Z,35.60
2019-02-24T17:54:04.284Z,42.23
2019-02-24T17:56:34.879Z,40.23
2019-02-24T17:59:10.679Z,46.27
2019-02-24T18:01:41.372Z,34.03
2019-02-24T18:04:18.906Z,46.47
2019-02-24T18:06:50.639Z,52.13
2019-02-24T18:09:26.627Z,44.40
2019-02-24T18:12:01.336Z,42.37
2019-02-24T18:14:36.188Z,49.70
2019-02-24T18:17:18.101Z,50.93
2019-02-24T18:19:53.222Z,43.00
2019-02-24T18:22:26.315Z,42.10
2019-02-24T18:25:03.503Z,44.90
2019-02-24T18:27:35.578Z,42.93
2019-02-24T18:30:09.927Z,41.33
2019-02-24T18:32:41.022Z,42.27
2019-02-24T18:35:11.562Z,38.13
2019-02-24T18:37:43.966Z,39.73
2019-02-24T18:40:18.744Z,30.97
2019-02-24T18:42:59.314Z,33.40
2019-02-24T18:45:21.798Z,27.40
2019-02-24T18:47:55.372Z,30.30
2019-02-24T18:50:26.601Z,31.07
2019-02-24T18:53:02.693Z,33.87
2019-02-24T18:55:33.302Z,32.50
2019-02-24T18:58:10.777Z,37.17
2019-02-24T19:00:43.912Z,32.27
2019-02-24T19:03:18.917Z,33.13
2019-02-24T19:05:58.647Z,33.30
2019-02-24T19:08:31.363Z,45.90
2019-02-24T19:11:12.446Z,61.00
2019-02-24T19:13:49.560Z,61.40
2019-02-24T19:16:34.082Z,63.80
2019-02-24T19:19:07.063Z,84.70
2019-02-24T19:21:47.482Z,102.90
2019-02-24T19:24:24.346Z,105.73
2019-02-24T19:26:57.197Z,90.03
2019-02-24T19:29:40.183Z,62.50
2019-02-24T19:32:14.481Z,57.00
2019-02-24T19:34:45.123Z,45.43
2019-02-24T19:37:18.267Z,54.43
2019-02-24T19:39:55.250Z,81.20
2019-02-24T19:42:27.191Z,63.33
2019-02-24T19:45:13.917Z,57.23
2019-02-24T19:47:48.131Z,55.43
2019-02-24T19:50:21.342Z,57.53
2019-02-24T19:52:56.905Z,37.67
2019-02-24T19:55:35.608Z,40.50
2019-02-24T19:58:07.144Z,43.57
2019-02-24T20:00:42.453Z,41.27
2019-02-24T20:03:18.653Z,42.90
2019-02-24T20:05:49.415Z,34.40
2019-02-24T20:08:26.984Z,40.47
2019-02-24T20:11:03.623Z,38.60
2019-02-24T20:13:35.124Z,37.43
2019-02-24T20:16:09.001Z,47.50
2019-02-24T20:18:43.214Z,42.10
2019-02-24T20:21:17.922Z,45.03
2019-02-24T20:23:53.110Z,45.40
2019-02-24T20:26:27.345Z,50.83
2019-02-24T20:28:59.429Z,54.20
2019-02-24T20:31:32.364Z,75.30
2019-02-24T20:34:04.800Z,74.10
2019-02-24T20:36:40.299Z,61.13
2019-02-24T20:39:12.122Z,60.83
2019-02-24T20:41:45.204Z,74.77
2019-02-24T20:44:16.836Z,93.97
2019-02-24T20:46:47.668Z,105.83
2019-02-24T20:49:21.761Z,126.47
2019-02-24T20:51:54.673Z,150.50
2019-02-24T20:54:32.857Z,180.30
2019-02-24T20:57:06.111Z,157.17
2019-02-24T20:59:42.902Z,106.60
2019-02-24T21:02:14.965Z,86.50
2019-02-24T21:04:47.902Z,87.73
2019-02-24T21:07:22.379Z,69.03
2019-02-24T21:09:55.951Z,65.67
2019-02-24T21:12:31.946Z,85.03
2019-02-24T21:15:04.294Z,86.77
2019-02-24T21:17:36.043Z,82.53
2019-02-24T21:20:09.686Z,76.43
2019-02-24T21:22:43.494Z,70.43
2019-02-24T21:25:15.369Z,83.90
2019-02-24T21:27:46.086Z,66.10
2019-02-24T21:30:28.457Z,52.93
2019-02-24T21:32:59.079Z,61.97
2019-02-24T21:35:30.112Z,66.27
2019-02-24T21:38:00.890Z,90.67
2019-02-24T21:40:32.143Z,114.40
2019-02-24T21:43:06.463Z,111.73
2019-02-24T21:45:38.681Z,103.33
2019-02-24T21:48:09.401Z,81.77
2019-02-24T21:50:41.951Z,58.93
2019-02-24T21:53:12.974Z,48.23
2019-02-24T21:55:43.796Z,45.60
2019-02-24T21:58:14.414Z,43.20
2019-02-24T22:00:45.390Z,36.20
2019-02-24T22:03:16.287Z,32.93
2019-02-24T22:05:47.551Z,34.90
2019-02-24T22:08:18.803Z,52.03
2019-02-24T22:10:49.951Z,42.50
2019-02-24T22:13:20.416Z,40.63
2019-02-24T22:15:51.053Z,32.33
2019-02-24T22:18:21.544Z,40.83
2019-02-24T22:20:52.176Z,39.60
2019-02-24T22:23:22.786Z,51.43
2019-02-24T22:25:53.321Z,54.40
2019-02-24T22:28:23.937Z,49.27
2019-02-24T22:30:54.556Z,42.00
2019-02-24T22:33:25.119Z,33.67
2019-02-24T22:35:55.628Z,29.37
2019-02-24T22:38:26.672Z,27.60
2019-02-24T22:40:57.106Z,34.77
2019-02-24T22:43:27.719Z,41.20
2019-02-24T22:45:58.351Z,46.20
2019-02-24T22:48:29.072Z,41.77
2019-02-24T22:50:59.542Z,32.93
2019-02-24T22:53:30.152Z,31.27
2019-02-24T22:56:00.711Z,30.63
2019-02-24T22:58:31.158Z,31.80
2019-02-24T23:01:13.586Z,42.07
2019-02-24T23:03:49.096Z,40.87
2019-02-24T23:06:19.721Z,41.00
2019-02-24T23:08:50.735Z,23.10
2019-02-24T23:11:21.396Z,22.13
2019-02-24T23:13:51.981Z,23.70
2019-02-24T23:16:22.710Z,27.60
2019-02-24T23:18:53.265Z,31.00
2019-02-24T23:21:23.895Z,35.20
2019-02-24T23:23:54.441Z,30.13
2019-02-24T23:26:24.821Z,30.37
2019-02-24T23:28:55.513Z,26.80
2019-02-24T23:31:25.916Z,25.10
2019-02-24T23:33:56.574Z,27.73
2019-02-24T23:36:27.186Z,29.70
2019-02-24T23:38:58.232Z,30.47
2019-02-24T23:41:28.726Z,32.40
2019-02-24T23:43:59.191Z,31.20
2019-02-24T23:46:30.028Z,28.53
2019-02-24T23:49:00.723Z,27.70
2019-02-24T23:51:31.230Z,29.87
2019-02-24T23:54:01.830Z,27.93
2019-02-24T23:56:32.424Z,26.03
2019-02-24T23:59:02.962Z,25.77
